Aviation Digital Data Service (ADDS)

Output produced by METARs form (1143 UTC 26 May 2015)
found at http://aviationweather.gov/adds/metars/
 
KFAY 261134Z 2612/2712 20007KT P6SM FEW040 SCT250 
     FM261700 16008KT P6SM BKN040 
     FM270300 21006KT P6SM SCT250 
     FM270900 21004KT 4SM BR SCT015 SCT250